Time;durP1;ratioP1;P1;durP2;ratioP2;P2;SDS_P1;SDS_P2;PMS_P1;PMS_P2;Temp;Humidity;BMP_temperature;BMP_pressure;BME280_temperature;BME280_humidity;BME280_pressure;Samples;Min_cycle;Max_cycle;Signal;HPM_P1;HPM_P2
2022/11/18 00:00:18;;;;;;;5.60;1.90;;;12.10;99.90;;;;;;4952176;28;20270;-68
2022/11/18 00:02:44;;;;;;;3.27;1.80;;;12.10;99.90;;;;;;4944815;28;20215;-68
2022/11/18 00:05:09;;;;;;;5.47;1.93;;;12.10;99.90;;;;;;4947109;28;20281;-67
2022/11/18 00:07:35;;;;;;;4.37;1.60;;;12.10;99.90;;;;;;4946034;28;20704;-67
2022/11/18 00:10:00;;;;;;;2.27;1.40;;;12.10;99.90;;;;;;4947682;28;20572;-67
2022/11/18 00:15:10;;;;;;;3.10;1.30;;;12.20;99.90;;;;;;4946208;28;20742;-68
2022/11/18 00:17:35;;;;;;;3.10;1.97;;;12.20;99.90;;;;;;4947203;28;20430;-66
2022/11/18 00:20:01;;;;;;;3.37;1.70;;;12.10;99.90;;;;;;4951643;28;20183;-67
2022/11/18 00:22:26;;;;;;;3.47;1.50;;;12.20;99.90;;;;;;4952812;28;20631;-67
2022/11/18 00:24:52;;;;;;;4.37;1.33;;;12.20;99.90;;;;;;4947529;28;20649;-67
2022/11/18 00:27:17;;;;;;;4.50;2.40;;;12.20;99.90;;;;;;4955732;28;20627;-67
2022/11/18 00:29:43;;;;;;;5.73;2.53;;;12.20;99.90;;;;;;5006995;28;20268;-67
2022/11/18 00:32:08;;;;;;;2.20;1.77;;;12.20;99.90;;;;;;4942498;28;20424;-67
2022/11/18 00:34:34;;;;;;;3.30;1.57;;;12.20;99.90;;;;;;4947395;28;20192;-67
2022/11/18 00:36:59;;;;;;;4.23;1.90;;;12.20;99.90;;;;;;4944979;28;20187;-67
2022/11/18 00:39:25;;;;;;;3.60;1.70;;;12.20;99.90;;;;;;5006770;28;20187;-67
2022/11/18 00:44:35;;;;;;;3.00;1.60;;;12.30;99.90;;;;;;4959839;28;20214;-66
2022/11/18 00:47:01;;;;;;;5.77;1.70;;;12.30;99.90;;;;;;4946318;28;20443;-67
2022/11/18 00:49:27;;;;;;;3.00;1.70;;;12.30;99.90;;;;;;5006864;28;21276;-68
2022/11/18 00:51:53;;;;;;;3.53;1.60;;;12.30;99.90;;;;;;4939500;28;20486;-68
2022/11/18 00:54:19;;;;;;;7.47;1.63;;;12.30;99.90;;;;;;4945630;28;20237;-68
2022/11/18 00:56:44;;;;;;;3.70;1.40;;;12.30;99.90;;;;;;4943431;28;20191;-68
2022/11/18 00:59:10;;;;;;;8.23;1.70;;;12.30;99.90;;;;;;4946511;28;20184;-68
2022/11/18 01:01:36;;;;;;;4.07;1.60;;;12.30;99.90;;;;;;4947085;28;21677;-67
2022/11/18 01:04:01;;;;;;;6.43;1.77;;;12.30;99.90;;;;;;4951303;28;20211;-68
2022/11/18 01:06:27;;;;;;;8.43;2.00;;;12.30;99.90;;;;;;4947066;28;20689;-68
2022/11/18 01:08:52;;;;;;;3.10;1.53;;;12.30;99.90;;;;;;4948003;28;20222;-67
2022/11/18 01:14:02;;;;;;;3.40;1.97;;;12.20;99.90;;;;;;4954936;28;20194;-68
2022/11/18 01:16:29;;;;;;;5.43;2.00;;;12.10;99.90;;;;;;4949283;28;20422;-68
2022/11/18 01:18:55;;;;;;;4.60;1.80;;;12.10;99.90;;;;;;4953478;28;20218;-67
2022/11/18 01:21:21;;;;;;;4.10;2.47;;;12.00;99.90;;;;;;4954154;28;20982;-67
2022/11/18 01:23:47;;;;;;;3.80;1.70;;;12.00;99.90;;;;;;4955394;28;20466;-67
2022/11/18 01:26:14;;;;;;;4.90;1.93;;;12.10;99.90;;;;;;4954500;28;20477;-67
2022/11/18 01:28:40;;;;;;;3.40;1.80;;;12.10;99.90;;;;;;5010837;28;20695;-67
2022/11/18 01:31:17;;;;;;;3.33;1.93;;;12.10;99.90;;;;;;5021421;28;20512;-67
2022/11/18 01:33:44;;;;;;;4.23;1.90;;;12.00;99.90;;;;;;4946218;28;20857;-67
2022/11/18 01:36:24;;;;;;;2.97;1.60;;;12.00;99.90;;;;;;4958707;28;20462;-67
2022/11/18 01:38:50;;;;;;;5.03;1.60;;;12.00;99.90;;;;;;4948964;28;20805;-68
2022/11/18 01:41:17;;;;;;;3.83;1.70;;;12.00;99.90;;;;;;4946683;28;20549;-67
2022/11/18 01:43:59;;;;;;;3.17;1.80;;;12.00;99.90;;;;;;4945400;28;20470;-67
2022/11/18 01:46:28;;;;;;;3.93;1.70;;;12.10;99.90;;;;;;4942410;28;20442;-66
2022/11/18 01:49:14;;;;;;;1.67;1.07;;;12.10;99.90;;;;;;4949735;28;20439;-67
2022/11/18 01:51:55;;;;;;;4.40;1.40;;;12.10;99.90;;;;;;4949814;28;20461;-67
2022/11/18 01:54:30;;;;;;;4.10;1.80;;;12.00;99.90;;;;;;4944100;28;20443;-67
2022/11/18 01:57:00;;;;;;;3.50;2.03;;;12.00;99.90;;;;;;4961213;28;20430;-67
2022/11/18 01:59:30;;;;;;;6.47;1.63;;;12.00;99.90;;;;;;4945719;28;20480;-66
2022/11/18 02:01:56;;;;;;;3.60;1.60;;;12.10;99.90;;;;;;4965198;28;20532;-66
2022/11/18 02:04:24;;;;;;;3.20;1.93;;;12.00;99.90;;;;;;4944980;28;20985;-68
2022/11/18 02:06:50;;;;;;;2.10;1.37;;;12.00;99.90;;;;;;4962665;28;20445;-68
2022/11/18 02:09:16;;;;;;;2.23;1.27;;;12.10;99.90;;;;;;4945224;28;20443;-68
2022/11/18 02:11:54;;;;;;;3.97;1.53;;;12.20;99.90;;;;;;4951619;28;20828;-66
2022/11/18 02:14:25;;;;;;;4.03;1.33;;;12.20;99.90;;;;;;4941439;28;20180;-68
2022/11/18 02:16:56;;;;;;;2.57;1.40;;;12.10;99.90;;;;;;4946539;28;20458;-68
2022/11/18 02:19:46;;;;;;;2.30;1.20;;;12.10;99.90;;;;;;4947659;28;20519;-68
2022/11/18 02:22:45;;;;;;;2.60;1.43;;;12.00;99.90;;;;;;4943030;28;20561;-68
2022/11/18 02:25:30;;;;;;;4.33;1.30;;;11.90;99.90;;;;;;4950625;28;20438;-68
2022/11/18 02:28:11;;;;;;;4.43;1.63;;;11.80;99.90;;;;;;4952010;28;20419;-69
2022/11/18 02:30:52;;;;;;;3.03;1.27;;;11.80;99.90;;;;;;4943781;28;20466;-68
2022/11/18 02:33:32;;;;;;;2.77;1.30;;;11.80;99.90;;;;;;4947659;28;20914;-67
2022/11/18 02:36:20;;;;;;;3.87;1.50;;;11.80;99.90;;;;;;4943918;28;20450;-68
2022/11/18 02:38:53;;;;;;;1.80;1.30;;;11.70;99.90;;;;;;4943415;28;20423;-67
2022/11/18 02:41:24;;;;;;;2.83;1.47;;;11.70;99.90;;;;;;4947245;28;20455;-68
2022/11/18 02:44:06;;;;;;;5.13;1.83;;;11.70;99.90;;;;;;4942030;28;20482;-68
2022/11/18 02:46:35;;;;;;;2.70;1.73;;;11.70;99.90;;;;;;4954174;28;20815;-68
2022/11/18 02:49:06;;;;;;;3.40;1.93;;;11.50;99.90;;;;;;4949886;28;20940;-68
2022/11/18 02:51:34;;;;;;;3.50;1.67;;;11.40;99.90;;;;;;4939683;28;20621;-68
2022/11/18 02:54:03;;;;;;;3.47;1.70;;;11.40;99.90;;;;;;4962081;28;20435;-67
2022/11/18 02:56:30;;;;;;;2.57;1.40;;;11.30;99.90;;;;;;4940521;28;20458;-69
2022/11/18 02:58:55;;;;;;;2.70;1.37;;;11.30;99.90;;;;;;4947108;28;20449;-68
2022/11/18 03:01:28;;;;;;;3.13;1.37;;;11.30;99.90;;;;;;4943754;28;20454;-68
2022/11/18 03:03:53;;;;;;;1.93;1.50;;;11.20;99.90;;;;;;4945261;28;20219;-68
2022/11/18 03:06:34;;;;;;;3.07;1.70;;;11.20;99.90;;;;;;4944029;28;20839;-68
2022/11/18 03:09:13;;;;;;;2.37;1.70;;;11.30;99.90;;;;;;4945407;28;20179;-69
2022/11/18 03:11:48;;;;;;;1.90;1.27;;;11.20;99.90;;;;;;4942473;28;20811;-68
2022/11/18 03:14:23;;;;;;;3.50;1.33;;;11.20;99.90;;;;;;4946172;28;20427;-68
2022/11/18 03:17:13;;;;;;;3.30;1.60;;;11.30;99.90;;;;;;4940776;28;20445;-69
2022/11/18 03:20:03;;;;;;;3.00;1.53;;;11.30;99.90;;;;;;4943578;28;20479;-69
2022/11/18 03:22:43;;;;;;;3.80;1.50;;;11.30;99.90;;;;;;5023820;28;20481;-69
2022/11/18 03:25:29;;;;;;;2.27;1.33;;;11.20;99.90;;;;;;4943257;28;20465;-68
2022/11/18 03:28:22;;;;;;;3.70;1.40;;;11.10;99.90;;;;;;4946774;28;20757;-68
2022/11/18 03:31:12;;;;;;;3.83;1.40;;;11.00;99.90;;;;;;4946934;28;20539;-69
2022/11/18 03:33:43;;;;;;;4.57;1.50;;;11.00;99.90;;;;;;4945934;28;20436;-68
2022/11/18 03:36:12;;;;;;;2.53;1.33;;;10.80;99.90;;;;;;4947794;28;20550;-68
2022/11/18 03:38:46;;;;;;;2.40;1.40;;;10.90;99.90;;;;;;4943972;28;20485;-68
2022/11/18 03:41:14;;;;;;;3.20;1.83;;;10.90;99.90;;;;;;4944487;28;20974;-69
2022/11/18 03:43:46;;;;;;;4.60;1.90;;;10.90;99.90;;;;;;4940263;28;20764;-69
2022/11/18 03:46:22;;;;;;;4.00;1.53;;;10.90;99.90;;;;;;4944164;28;20525;-69
2022/11/18 03:48:51;;;;;;;2.70;1.60;;;10.90;99.90;;;;;;4946900;28;20430;-70
2022/11/18 03:51:22;;;;;;;2.97;1.70;;;10.80;99.90;;;;;;4956061;28;20454;-70
2022/11/18 03:54:02;;;;;;;3.57;1.50;;;10.90;99.90;;;;;;4947127;28;20415;-69
2022/11/18 03:56:37;;;;;;;3.27;1.40;;;11.00;99.90;;;;;;4944582;28;20470;-69
2022/11/18 03:59:10;;;;;;;2.33;1.40;;;11.00;99.90;;;;;;4950916;28;20427;-69
2022/11/18 04:01:51;;;;;;;3.37;1.50;;;11.00;99.90;;;;;;4941778;28;20493;-69
2022/11/18 04:04:17;;;;;;;3.30;1.63;;;11.00;99.90;;;;;;4950485;28;20840;-69
2022/11/18 04:06:52;;;;;;;4.37;1.90;;;11.10;99.90;;;;;;5011102;28;20443;-69
2022/11/18 04:09:23;;;;;;;1.80;1.40;;;11.10;99.90;;;;;;4943165;28;20427;-69
2022/11/18 04:12:03;;;;;;;2.70;1.80;;;11.10;99.90;;;;;;4941950;28;20533;-69
2022/11/18 04:14:51;;;;;;;2.10;1.50;;;11.00;99.90;;;;;;4937865;28;20477;-69
2022/11/18 04:17:20;;;;;;;3.80;1.50;;;11.10;99.90;;;;;;4948066;28;20421;-69
2022/11/18 04:19:46;;;;;;;3.03;1.30;;;11.10;99.90;;;;;;4942209;28;20427;-70
2022/11/18 04:22:12;;;;;;;2.10;1.40;;;11.00;99.90;;;;;;4946962;28;20475;-70
2022/11/18 04:24:37;;;;;;;5.00;1.30;;;11.00;99.90;;;;;;4941590;28;20447;-69
2022/11/18 04:27:04;;;;;;;5.00;1.77;;;11.00;99.90;;;;;;4943220;28;20195;-69
2022/11/18 04:29:30;;;;;;;2.40;1.40;;;11.00;99.90;;;;;;4942955;28;20440;-69
2022/11/18 04:31:56;;;;;;;3.90;1.50;;;11.00;99.90;;;;;;4950526;28;20476;-69
2022/11/18 04:34:22;;;;;;;2.87;1.40;;;10.90;99.90;;;;;;4946590;28;20423;-70
2022/11/18 04:36:47;;;;;;;2.33;1.40;;;11.00;99.90;;;;;;4952238;28;20213;-69
2022/11/18 04:39:13;;;;;;;5.57;1.77;;;11.00;99.90;;;;;;4948321;28;20282;-69
2022/11/18 04:41:57;;;;;;;1.90;1.30;;;11.00;99.90;;;;;;4945018;28;20235;-69
2022/11/18 04:44:28;;;;;;;3.07;1.40;;;11.10;99.90;;;;;;4956524;28;20196;-69
2022/11/18 04:46:55;;;;;;;2.90;1.30;;;11.00;99.90;;;;;;4946315;28;20809;-69
2022/11/18 04:49:22;;;;;;;2.47;1.40;;;11.10;99.90;;;;;;4956318;28;20434;-69
2022/11/18 04:51:47;;;;;;;2.23;1.37;;;11.00;99.90;;;;;;4947077;28;21478;-69
2022/11/18 04:54:14;;;;;;;2.53;1.30;;;11.10;99.90;;;;;;4948592;28;20799;-69
2022/11/18 04:56:40;;;;;;;2.50;1.43;;;11.00;99.90;;;;;;4945884;28;20210;-69
2022/11/18 04:59:06;;;;;;;1.97;1.20;;;11.00;99.90;;;;;;5019207;28;20971;-68
2022/11/18 05:01:32;;;;;;;2.30;1.23;;;11.00;99.90;;;;;;4944440;28;20462;-68
2022/11/18 05:04:00;;;;;;;5.00;2.60;;;11.00;99.90;;;;;;4950510;28;20583;-68
2022/11/18 05:06:26;;;;;;;1.80;1.20;;;11.00;99.90;;;;;;4940048;28;20517;-68
2022/11/18 05:08:52;;;;;;;1.80;1.00;;;10.90;99.90;;;;;;4945741;28;20990;-68
2022/11/18 05:14:01;;;;;;;2.00;1.10;;;10.80;99.90;;;;;;4952039;28;20200;-68
2022/11/18 05:16:27;;;;;;;3.10;1.43;;;10.80;99.90;;;;;;4951300;28;20514;-70
2022/11/18 05:18:53;;;;;;;2.23;1.10;;;10.70;99.90;;;;;;4947238;28;21079;-68
2022/11/18 05:21:18;;;;;;;1.90;1.20;;;10.70;99.90;;;;;;4955344;28;20313;-68
2022/11/18 05:23:44;;;;;;;6.50;1.30;;;10.60;99.90;;;;;;4946874;28;20226;-68
2022/11/18 05:26:10;;;;;;;1.70;1.00;;;10.60;99.90;;;;;;4945280;28;20685;-68
2022/11/18 05:28:37;;;;;;;2.00;1.17;;;10.60;99.90;;;;;;4955633;28;20646;-68
2022/11/18 05:31:11;;;;;;;3.17;1.10;;;10.50;99.90;;;;;;5014777;28;20972;-68
2022/11/18 05:33:37;;;;;;;4.57;1.13;;;10.30;99.90;;;;;;4939951;28;20452;-68
2022/11/18 05:36:08;;;;;;;2.10;1.40;;;10.30;99.90;;;;;;4942030;28;20805;-70
2022/11/18 05:38:34;;;;;;;1.70;1.10;;;10.30;99.90;;;;;;4945731;28;20435;-69
2022/11/18 05:41:00;;;;;;;1.80;1.30;;;10.30;99.90;;;;;;4937262;28;20469;-68
2022/11/18 05:43:26;;;;;;;2.23;1.20;;;10.30;99.90;;;;;;4943695;28;20467;-69
2022/11/18 05:45:52;;;;;;;2.33;1.17;;;10.20;99.90;;;;;;4941762;28;20450;-69
2022/11/18 05:48:18;;;;;;;1.87;1.10;;;10.20;99.90;;;;;;4950245;28;20435;-68
2022/11/18 05:50:47;;;;;;;3.60;1.10;;;10.20;99.90;;;;;;4942421;28;20350;-68
2022/11/18 05:53:13;;;;;;;2.23;1.13;;;10.20;99.90;;;;;;4947062;28;20437;-68
2022/11/18 05:56:09;;;;;;;1.70;1.00;;;10.10;99.90;;;;;;4944554;28;20449;-68
2022/11/18 05:58:37;;;;;;;2.10;1.20;;;10.10;99.90;;;;;;4946029;28;20485;-69
2022/11/18 06:01:05;;;;;;;2.03;1.30;;;10.10;99.90;;;;;;4948819;28;21041;-68
2022/11/18 06:03:37;;;;;;;2.27;1.20;;;10.10;99.90;;;;;;4943039;28;20841;-69
2022/11/18 06:06:04;;;;;;;3.37;1.30;;;10.10;99.90;;;;;;4943449;28;20423;-69
2022/11/18 06:08:36;;;;;;;1.50;1.10;;;10.10;99.90;;;;;;4940115;28;20442;-69
2022/11/18 06:11:09;;;;;;;1.50;1.20;;;10.10;99.90;;;;;;4949571;28;20802;-69
2022/11/18 06:14:15;;;;;;;2.00;1.33;;;10.10;99.90;;;;;;4954531;28;20654;-69
2022/11/18 06:16:46;;;;;;;4.57;1.40;;;10.10;99.90;;;;;;4986522;28;20983;-69
2022/11/18 06:19:12;;;;;;;1.80;1.20;;;10.10;99.90;;;;;;4947751;28;20434;-69
2022/11/18 06:21:37;;;;;;;2.60;1.27;;;10.10;99.90;;;;;;4952573;28;20954;-68
2022/11/18 06:24:04;;;;;;;1.80;1.20;;;10.10;99.90;;;;;;4942181;28;20294;-67
2022/11/18 06:26:30;;;;;;;1.93;1.30;;;10.00;99.90;;;;;;4944954;28;20191;-69
2022/11/18 06:28:56;;;;;;;2.50;1.30;;;10.10;99.90;;;;;;4942958;28;20517;-69
2022/11/18 06:31:22;;;;;;;2.30;1.20;;;10.10;99.90;;;;;;4943825;28;20516;-70
2022/11/18 06:33:47;;;;;;;6.40;1.20;;;10.20;99.90;;;;;;4950282;28;20539;-69
2022/11/18 06:36:13;;;;;;;2.00;1.50;;;10.20;99.90;;;;;;4945030;28;20613;-68
2022/11/18 06:38:38;;;;;;;2.43;1.30;;;10.20;99.90;;;;;;4945135;28;20203;-70
2022/11/18 06:41:04;;;;;;;1.80;1.10;;;10.30;99.90;;;;;;4946018;28;20231;-69
2022/11/18 06:43:40;;;;;;;3.13;1.23;;;10.30;99.90;;;;;;4963233;28;20201;-69
2022/11/18 06:48:53;;;;;;;2.57;1.40;;;10.30;99.90;;;;;;4948159;28;20482;-69
2022/11/18 06:51:19;;;;;;;1.83;1.20;;;10.30;99.90;;;;;;4952687;28;20462;-68
2022/11/18 06:53:44;;;;;;;1.53;1.10;;;10.30;99.90;;;;;;4944218;28;20512;-69
2022/11/18 06:56:12;;;;;;;1.83;1.30;;;10.30;99.90;;;;;;4950420;28;20629;-69
2022/11/18 06:58:38;;;;;;;1.90;1.10;;;10.30;99.90;;;;;;4948086;28;20277;-69
2022/11/18 07:01:16;;;;;;;2.37;1.60;;;10.30;99.90;;;;;;5008017;28;20577;-69
2022/11/18 07:03:43;;;;;;;2.00;1.30;;;10.30;99.90;;;;;;4944280;28;20216;-71
2022/11/18 07:06:10;;;;;;;1.83;1.30;;;10.20;99.90;;;;;;4943907;28;20855;-70
2022/11/18 07:08:37;;;;;;;2.77;1.83;;;10.30;99.90;;;;;;5007053;28;20450;-68
2022/11/18 07:11:05;;;;;;;2.27;1.70;;;10.30;99.90;;;;;;4947131;28;20459;-69
2022/11/18 07:13:32;;;;;;;2.37;1.60;;;10.20;99.90;;;;;;4943681;28;20901;-69
2022/11/18 07:16:09;;;;;;;3.03;1.67;;;10.10;99.90;;;;;;4942836;28;20435;-69
2022/11/18 07:18:37;;;;;;;2.37;1.60;;;10.10;99.90;;;;;;4940430;28;20477;-69
2022/11/18 07:21:04;;;;;;;3.83;1.53;;;10.10;99.90;;;;;;4945460;28;20516;-69
2022/11/18 07:23:31;;;;;;;5.80;1.63;;;10.10;99.90;;;;;;4945856;28;20498;-69
2022/11/18 07:25:57;;;;;;;2.43;1.50;;;10.10;99.90;;;;;;5005901;28;20542;-69
2022/11/18 07:28:22;;;;;;;2.90;1.50;;;10.10;99.90;;;;;;4939593;28;20505;-69
2022/11/18 07:30:48;;;;;;;3.00;1.60;;;10.20;99.90;;;;;;4943298;28;21232;-69
2022/11/18 07:33:13;;;;;;;3.93;1.40;;;10.20;99.90;;;;;;4940323;28;20584;-69
2022/11/18 07:35:39;;;;;;;2.83;1.53;;;10.20;99.90;;;;;;4940968;28;20606;-70
2022/11/18 07:38:05;;;;;;;3.43;1.70;;;10.20;99.90;;;;;;4943334;28;20199;-69
2022/11/18 07:40:30;;;;;;;2.03;1.47;;;10.20;99.90;;;;;;4944275;28;20211;-69
2022/11/18 07:42:56;;;;;;;3.37;1.57;;;10.20;99.90;;;;;;4947658;28;20261;-69
2022/11/18 07:45:22;;;;;;;5.37;1.80;;;10.30;99.90;;;;;;5006979;28;20209;-70
2022/11/18 07:47:48;;;;;;;5.07;1.77;;;10.30;99.90;;;;;;4957057;28;20461;-69
2022/11/18 07:50:15;;;;;;;5.60;2.00;;;10.30;99.90;;;;;;4947450;28;20419;-69
2022/11/18 07:52:41;;;;;;;2.20;2.00;;;10.30;99.90;;;;;;4946135;28;20582;-69
2022/11/18 07:55:07;;;;;;;3.33;2.13;;;10.30;99.90;;;;;;4946917;28;20460;-69
2022/11/18 07:57:32;;;;;;;3.10;2.27;;;10.30;99.90;;;;;;4949600;28;20183;-69
2022/11/18 07:59:58;;;;;;;3.10;1.70;;;10.40;99.90;;;;;;4942202;28;20504;-70
2022/11/18 08:02:24;;;;;;;2.50;1.73;;;10.30;99.90;;;;;;4945387;28;20219;-69
2022/11/18 08:04:49;;;;;;;2.90;1.60;;;10.30;99.90;;;;;;4943487;28;20194;-70
2022/11/18 08:07:15;;;;;;;3.40;1.87;;;10.40;99.90;;;;;;4949741;28;20290;-70
2022/11/18 08:09:40;;;;;;;3.70;2.57;;;10.50;99.90;;;;;;4944346;28;20192;-70
2022/11/18 08:12:06;;;;;;;3.70;1.80;;;10.50;99.90;;;;;;4954927;28;20234;-69
2022/11/18 08:14:31;;;;;;;2.43;1.90;;;10.40;99.90;;;;;;4946156;28;20503;-69
2022/11/18 08:16:57;;;;;;;2.83;1.80;;;10.50;99.90;;;;;;4950388;28;20192;-69
2022/11/18 08:19:22;;;;;;;3.80;2.30;;;10.40;99.90;;;;;;4990911;28;20186;-69
2022/11/18 08:21:48;;;;;;;1.87;1.33;;;10.50;99.90;;;;;;4942306;28;20200;-69
2022/11/18 08:24:14;;;;;;;2.40;1.97;;;10.40;99.90;;;;;;4938890;28;20298;-69
2022/11/18 08:26:39;;;;;;;2.40;1.80;;;10.30;99.90;;;;;;4951045;28;20385;-71
2022/11/18 08:29:05;;;;;;;3.30;1.97;;;10.40;99.90;;;;;;4948284;28;20281;-68
2022/11/18 08:31:30;;;;;;;2.57;1.83;;;10.40;99.90;;;;;;4945305;28;20207;-68
2022/11/18 08:33:58;;;;;;;2.10;1.87;;;10.50;99.90;;;;;;4942179;28;20226;-68
2022/11/18 08:36:26;;;;;;;2.47;2.00;;;10.60;99.90;;;;;;4942324;28;20191;-68
2022/11/18 08:38:57;;;;;;;3.73;2.30;;;10.70;99.90;;;;;;4943783;28;20695;-69
2022/11/18 08:41:41;;;;;;;3.80;2.57;;;10.70;99.90;;;;;;4945240;28;20450;-69
2022/11/18 08:44:09;;;;;;;3.80;3.17;;;10.70;99.90;;;;;;4945175;28;20538;-69
2022/11/18 08:46:34;;;;;;;3.73;2.20;;;10.70;99.90;;;;;;4947209;28;20447;-69
2022/11/18 08:49:00;;;;;;;3.37;2.53;;;10.70;99.90;;;;;;4940962;28;20426;-69
2022/11/18 08:51:26;;;;;;;2.80;2.17;;;10.60;99.90;;;;;;4948257;28;20222;-69
2022/11/18 08:53:52;;;;;;;2.87;2.57;;;10.70;99.90;;;;;;5010773;28;20683;-69
2022/11/18 08:56:19;;;;;;;4.97;3.47;;;10.70;99.90;;;;;;4947709;28;20439;-69
2022/11/18 08:58:45;;;;;;;3.00;2.20;;;10.80;99.90;;;;;;4943396;28;20557;-69
2022/11/18 09:01:11;;;;;;;6.00;2.17;;;10.90;99.90;;;;;;4943975;28;20455;-69
2022/11/18 09:03:37;;;;;;;3.30;2.63;;;10.80;99.90;;;;;;4942565;28;20478;-69
2022/11/18 09:06:09;;;;;;;4.30;2.53;;;10.80;99.90;;;;;;4940759;28;20526;-69
2022/11/18 09:08:35;;;;;;;2.70;2.20;;;10.80;99.90;;;;;;4939249;28;20490;-68
2022/11/18 09:11:14;;;;;;;6.13;2.50;;;10.80;99.90;;;;;;4945008;28;20443;-68
2022/11/18 09:13:40;;;;;;;2.80;2.30;;;10.80;99.90;;;;;;4940865;28;20519;-71
2022/11/18 09:16:07;;;;;;;4.23;2.60;;;10.80;99.90;;;;;;4942109;28;20427;-69
2022/11/18 09:18:33;;;;;;;6.20;3.00;;;10.80;99.90;;;;;;4948427;28;20183;-69
2022/11/18 09:21:02;;;;;;;3.83;2.60;;;10.80;99.90;;;;;;4946058;28;20458;-69
2022/11/18 09:23:28;;;;;;;3.70;2.17;;;10.90;99.90;;;;;;4940680;28;21012;-69
2022/11/18 09:26:05;;;;;;;3.20;2.40;;;10.90;99.90;;;;;;4944925;28;20517;-70
2022/11/18 09:28:31;;;;;;;3.67;2.70;;;10.90;99.90;;;;;;4946400;28;20449;-69
2022/11/18 09:30:57;;;;;;;4.20;2.80;;;10.80;99.90;;;;;;4947446;28;20622;-69
2022/11/18 09:33:23;;;;;;;3.10;2.80;;;10.80;99.90;;;;;;5009338;28;20585;-69
2022/11/18 09:35:49;;;;;;;5.43;3.00;;;10.80;99.90;;;;;;4940279;28;20446;-69
2022/11/18 09:38:15;;;;;;;8.60;2.60;;;10.80;99.90;;;;;;4946669;28;20954;-69
2022/11/18 09:40:45;;;;;;;3.07;2.77;;;11.00;99.90;;;;;;4945292;28;20462;-68
2022/11/18 09:43:19;;;;;;;4.80;3.30;;;11.10;99.90;;;;;;4944253;28;20211;-69
2022/11/18 09:45:51;;;;;;;4.00;3.03;;;11.10;99.90;;;;;;4942697;28;20843;-69
2022/11/18 09:48:19;;;;;;;4.00;3.00;;;11.10;99.90;;;;;;4951190;28;20476;-69
2022/11/18 09:50:45;;;;;;;4.67;2.70;;;11.10;99.90;;;;;;4945313;28;20807;-69
2022/11/18 09:53:38;;;;;;;6.30;3.17;;;11.10;99.90;;;;;;4945482;28;20506;-69
2022/11/18 09:56:07;;;;;;;4.37;2.77;;;11.10;99.90;;;;;;4947799;28;20199;-70
2022/11/18 09:58:36;;;;;;;6.03;2.87;;;11.00;99.90;;;;;;4946516;28;20445;-69
2022/11/18 10:01:08;;;;;;;4.33;3.13;;;10.90;99.90;;;;;;4944676;28;20842;-69
2022/11/18 10:03:34;;;;;;;7.50;3.50;;;11.00;99.90;;;;;;4944836;28;20506;-69
2022/11/18 10:06:16;;;;;;;6.23;3.23;;;11.00;99.90;;;;;;4948864;28;20430;-70
2022/11/18 10:09:24;;;;;;;5.10;3.20;;;11.00;99.90;;;;;;4950321;28;20454;-69
2022/11/18 10:12:14;;;;;;;3.43;3.00;;;11.10;99.90;;;;;;4947401;28;20458;-69
2022/11/18 10:14:58;;;;;;;5.97;3.10;;;11.10;99.90;;;;;;4944323;28;20415;-69
2022/11/18 10:17:26;;;;;;;3.67;3.20;;;11.20;99.90;;;;;;4946643;28;20423;-69
2022/11/18 10:20:14;;;;;;;4.23;3.10;;;11.20;99.90;;;;;;4945034;28;20443;-69
2022/11/18 10:23:15;;;;;;;7.63;3.30;;;11.30;99.90;;;;;;4947251;28;20474;-69
2022/11/18 10:25:41;;;;;;;4.90;3.07;;;11.40;99.90;;;;;;4946546;28;20426;-69
2022/11/18 10:28:23;;;;;;;6.23;3.73;;;11.40;99.90;;;;;;4945204;28;20518;-69
2022/11/18 10:30:48;;;;;;;4.43;3.50;;;11.40;99.90;;;;;;4940929;28;20454;-69
2022/11/18 10:33:22;;;;;;;7.37;3.73;;;11.40;99.90;;;;;;4945150;28;20473;-68
2022/11/18 10:35:49;;;;;;;4.43;3.80;;;11.50;99.90;;;;;;4946714;28;20206;-68
2022/11/18 10:38:18;;;;;;;5.33;3.77;;;11.60;99.90;;;;;;4949054;28;20406;-69
2022/11/18 10:40:56;;;;;;;4.97;3.33;;;11.60;99.90;;;;;;4944647;28;21188;-69
2022/11/18 10:43:41;;;;;;;5.73;2.93;;;11.50;99.90;;;;;;4946480;28;20557;-69
2022/11/18 10:46:31;;;;;;;4.13;3.00;;;11.50;99.90;;;;;;4947212;28;20443;-69
2022/11/18 10:49:09;;;;;;;3.83;3.30;;;11.50;99.90;;;;;;5009540;28;20446;-69
2022/11/18 10:51:41;;;;;;;4.77;2.80;;;11.50;99.90;;;;;;4946624;28;20446;-69
2022/11/18 10:54:17;;;;;;;6.37;3.53;;;11.50;99.90;;;;;;4948991;28;21005;-68
2022/11/18 10:56:53;;;;;;;5.87;3.07;;;11.60;99.90;;;;;;4944812;28;20442;-69
2022/11/18 10:59:34;;;;;;;4.20;3.47;;;11.70;99.90;;;;;;4942761;28;20435;-69
2022/11/18 11:02:21;;;;;;;5.80;4.07;;;11.70;99.90;;;;;;4944283;28;20458;-69
2022/11/18 11:04:48;;;;;;;7.20;3.70;;;11.80;99.90;;;;;;4943902;28;20547;-69
2022/11/18 11:07:15;;;;;;;5.00;3.43;;;11.80;99.90;;;;;;4943770;28;20430;-69
2022/11/18 11:09:41;;;;;;;4.27;3.23;;;11.90;99.90;;;;;;4943554;28;20427;-69
2022/11/18 11:12:16;;;;;;;6.10;3.37;;;11.90;99.90;;;;;;5011288;28;20470;-68
2022/11/18 11:14:56;;;;;;;6.80;3.87;;;11.90;99.90;;;;;;5007042;28;20201;-69
2022/11/18 11:17:33;;;;;;;5.93;3.80;;;12.00;99.90;;;;;;4949025;28;20418;-69
2022/11/18 11:20:18;;;;;;;4.07;2.80;;;12.00;99.90;;;;;;4942503;28;20971;-69
2022/11/18 11:22:45;;;;;;;8.47;2.40;;;12.10;99.90;;;;;;4946230;28;20503;-69
2022/11/18 11:25:22;;;;;;;4.23;2.57;;;12.10;99.90;;;;;;4943340;28;20492;-69
2022/11/18 11:28:09;;;;;;;4.47;2.53;;;12.00;99.90;;;;;;4945460;28;20509;-69
2022/11/18 11:30:42;;;;;;;6.87;3.07;;;11.90;99.90;;;;;;4945600;28;20462;-69
2022/11/18 11:33:14;;;;;;;3.90;2.77;;;11.80;99.90;;;;;;4948115;28;20540;-69
2022/11/18 11:36:03;;;;;;;5.83;2.30;;;12.00;99.90;;;;;;4946908;28;20521;-69
2022/11/18 11:38:40;;;;;;;6.33;2.60;;;12.10;99.90;;;;;;4940442;28;20449;-69
2022/11/18 11:41:14;;;;;;;3.53;1.80;;;12.20;99.90;;;;;;4941268;28;20564;-70
2022/11/18 11:44:06;;;;;;;3.00;2.03;;;12.10;99.90;;;;;;4944844;28;20788;-68
2022/11/18 11:49:59;;;;;;;3.40;2.20;;;12.00;99.90;;;;;;4950683;28;20414;-68
2022/11/18 11:52:56;;;;;;;5.17;2.40;;;11.90;99.90;;;;;;4947224;28;20494;-68
2022/11/18 11:55:22;;;;;;;3.60;2.30;;;11.80;99.90;;;;;;4941602;28;20431;-69
2022/11/18 11:58:19;;;;;;;5.00;2.80;;;11.80;99.90;;;;;;4943057;28;20994;-69
2022/11/18 12:00:59;;;;;;;9.87;3.03;;;11.80;99.90;;;;;;4939903;28;20298;-69
2022/11/18 12:03:41;;;;;;;5.30;3.43;;;11.90;99.90;;;;;;4942409;28;20462;-69
2022/11/18 12:06:09;;;;;;;9.23;3.10;;;11.90;99.90;;;;;;4942917;28;20476;-68
2022/11/18 12:08:39;;;;;;;4.67;3.03;;;12.00;99.90;;;;;;4941176;28;20627;-69
2022/11/18 12:11:15;;;;;;;4.77;3.13;;;12.10;99.90;;;;;;4945523;28;20827;-68
2022/11/18 12:14:00;;;;;;;10.63;3.30;;;12.10;99.90;;;;;;4945486;28;20423;-68
2022/11/18 12:16:38;;;;;;;6.00;2.70;;;12.10;99.90;;;;;;4941440;28;20454;-69
2022/11/18 12:19:18;;;;;;;5.33;3.00;;;12.10;99.90;;;;;;5014188;28;20971;-68
2022/11/18 12:21:46;;;;;;;8.53;2.67;;;12.20;99.90;;;;;;4949541;28;20504;-68
2022/11/18 12:24:32;;;;;;;9.17;3.40;;;12.30;99.90;;;;;;5023031;28;20482;-68
2022/11/18 12:27:03;;;;;;;4.90;3.00;;;12.30;99.90;;;;;;4948810;28;20425;-69
2022/11/18 12:29:51;;;;;;;4.57;3.40;;;12.30;99.90;;;;;;4945467;28;20446;-69
2022/11/18 12:32:30;;;;;;;5.20;3.00;;;12.40;99.90;;;;;;4941895;28;20442;-69
2022/11/18 12:35:24;;;;;;;7.03;2.87;;;12.50;99.90;;;;;;4946116;28;20931;-68
2022/11/18 12:37:52;;;;;;;6.30;2.90;;;12.40;99.90;;;;;;4945734;28;20458;-69
2022/11/18 12:40:33;;;;;;;4.67;2.53;;;12.60;99.90;;;;;;4941648;28;20427;-68
2022/11/18 12:45:44;;;;;;;5.53;2.40;;;13.20;99.90;;;;;;4940478;28;20497;-69
2022/11/18 12:48:29;;;;;;;5.43;2.50;;;13.10;99.90;;;;;;4949845;28;20427;-69
2022/11/18 12:51:10;;;;;;;4.17;2.10;;;13.10;99.90;;;;;;4955541;28;20269;-69
2022/11/18 12:53:42;;;;;;;4.50;1.97;;;13.10;99.90;;;;;;4945983;28;20461;-69
2022/11/18 12:56:16;;;;;;;3.90;1.87;;;13.00;99.90;;;;;;4951436;28;20435;-69
2022/11/18 12:58:53;;;;;;;3.23;1.83;;;13.00;99.90;;;;;;4947437;28;20473;-68
2022/11/18 13:01:22;;;;;;;3.60;1.40;;;12.80;99.90;;;;;;4942038;28;20466;-68
2022/11/18 13:03:48;;;;;;;3.60;1.93;;;12.90;99.90;;;;;;4956736;28;20849;-69
2022/11/18 13:06:25;;;;;;;4.20;1.63;;;12.80;99.90;;;;;;4949877;28;20419;-68
2022/11/18 13:08:58;;;;;;;4.70;2.07;;;12.80;99.90;;;;;;4950041;28;20179;-69
2022/11/18 13:11:44;;;;;;;7.07;2.13;;;12.80;99.90;;;;;;4943591;28;20443;-69
2022/11/18 13:19:52;;;;;;;3.40;1.67;;;12.60;99.90;;;;;;4946381;28;20488;-69
2022/11/18 13:25:02;;;;;;;2.90;1.73;;;12.60;99.90;;;;;;4947038;28;20946;-69
2022/11/18 13:28:08;;;;;;;3.93;1.67;;;12.80;99.90;;;;;;4945734;28;20430;-68
2022/11/18 13:30:36;;;;;;;3.80;1.93;;;13.00;99.90;;;;;;4946505;28;20199;-68
2022/11/18 13:33:02;;;;;;;3.67;1.53;;;13.10;99.90;;;;;;4946155;28;20427;-67
2022/11/18 13:35:28;;;;;;;2.70;1.80;;;13.10;99.90;;;;;;4941621;28;20935;-67
2022/11/18 13:38:01;;;;;;;3.20;2.00;;;13.10;99.90;;;;;;4956626;28;20503;-67